KFOE/FOE METAR and TAF weather

Enter ICAO airport designator
Station Type Date Time Source
KFOE METAR 2021/07/27 22:53 UTC NOAA

KFOE 272253Z 09005KT 10SM CLR 33/24 A3002 RMK AO2 SLP152 T03330244


Station Type Date Time Source
KFOE Decoded METAR 2021/07/27 22:53 UTC NOAA

FORBES FIELD, KS, United States (KFOE) 38-56N 95-39W 320M
Jul 27, 2021 - 06:53 PM EDT / 2021.07.27 2253 UTC
Wind: from the E (090 degrees) at 6 MPH (5 KT):0
Visibility: 10 mile(s):0
Sky conditions: clear
Temperature: 91.9 F (33.3 C)
Heat index: 103.8 F (39.9 C):1
Dew Point: 75.9 F (24.4 C)
Relative Humidity: 59%
Pressure (altimeter): 30.02 in. Hg (1016 hPa)
ob: KFOE 272253Z 09005KT 10SM CLR 33/24 A3002 RMK AO2 SLP152 T03330244
cycle: 23

Station Type Date Time Source
KFOE TAF 2021/07/27 18:30 UTC NOAA

TAF KFOE 271729Z 2718/2818 16006KT P6SM SCT035

Example: see airport list